sensor_id;sensor_type;location;lat;lon;timestamp;temperature;humidity
64634;DHT22;51043;52.406;9.690;2023-02-15T00:00:03;1.30;99.90
64634;DHT22;51043;52.406;9.690;2023-02-15T00:02:30;1.30;99.90
64634;DHT22;51043;52.406;9.690;2023-02-15T00:04:57;1.20;99.90
64634;DHT22;51043;52.406;9.690;2023-02-15T00:07:24;1.10;99.90
64634;DHT22;51043;52.406;9.690;2023-02-15T00:09:51;1.00;99.90
64634;DHT22;51043;52.406;9.690;2023-02-15T00:12:17;0.90;99.90
64634;DHT22;51043;52.406;9.690;2023-02-15T00:14:44;0.80;99.90
64634;DHT22;51043;52.406;9.690;2023-02-15T00:17:11;0.80;99.90
64634;DHT22;51043;52.406;9.690;2023-02-15T00:19:38;0.80;99.90
64634;DHT22;51043;52.406;9.690;2023-02-15T00:22:06;0.70;99.90
64634;DHT22;51043;52.406;9.690;2023-02-15T00:24:33;0.80;99.90
64634;DHT22;51043;52.406;9.690;2023-02-15T00:27:00;0.70;99.90
64634;DHT22;51043;52.406;9.690;2023-02-15T00:29:27;0.70;99.90
64634;DHT22;51043;52.406;9.690;2023-02-15T00:31:54;0.70;99.90
64634;DHT22;51043;52.406;9.690;2023-02-15T00:34:24;0.80;99.90
64634;DHT22;51043;52.406;9.690;2023-02-15T00:36:52;0.90;99.90
64634;DHT22;51043;52.406;9.690;2023-02-15T00:39:19;0.80;99.90
64634;DHT22;51043;52.406;9.690;2023-02-15T00:41:46;0.80;99.90
64634;DHT22;51043;52.406;9.690;2023-02-15T00:44:14;0.70;99.90
64634;DHT22;51043;52.406;9.690;2023-02-15T00:46:41;0.70;99.90
64634;DHT22;51043;52.406;9.690;2023-02-15T00:49:09;0.60;99.90
64634;DHT22;51043;52.406;9.690;2023-02-15T00:51:37;0.60;99.90
64634;DHT22;51043;52.406;9.690;2023-02-15T00:54:04;0.60;99.90
64634;DHT22;51043;52.406;9.690;2023-02-15T00:56:31;0.60;99.90
64634;DHT22;51043;52.406;9.690;2023-02-15T00:58:58;0.70;99.90
64634;DHT22;51043;52.406;9.690;2023-02-15T01:01:25;0.70;99.90
64634;DHT22;51043;52.406;9.690;2023-02-15T01:03:52;0.70;99.90
64634;DHT22;51043;52.406;9.690;2023-02-15T01:06:19;0.60;99.90
64634;DHT22;51043;52.406;9.690;2023-02-15T01:08:47;0.50;99.90
64634;DHT22;51043;52.406;9.690;2023-02-15T01:11:17;0.40;99.90
64634;DHT22;51043;52.406;9.690;2023-02-15T01:13:51;0.30;99.90
64634;DHT22;51043;52.406;9.690;2023-02-15T01:16:19;0.20;99.90
64634;DHT22;51043;52.406;9.690;2023-02-15T01:18:46;0.10;99.90
64634;DHT22;51043;52.406;9.690;2023-02-15T01:21:17;0.10;99.90
64634;DHT22;51043;52.406;9.690;2023-02-15T01:23:44;0.00;99.90
64634;DHT22;51043;52.406;9.690;2023-02-15T01:26:14;0.00;99.90
64634;DHT22;51043;52.406;9.690;2023-02-15T01:28:43;-0.10;99.90
64634;DHT22;51043;52.406;9.690;2023-02-15T01:31:16;-0.10;99.90
64634;DHT22;51043;52.406;9.690;2023-02-15T01:33:45;-0.20;99.90
64634;DHT22;51043;52.406;9.690;2023-02-15T01:36:13;-0.20;99.90
64634;DHT22;51043;52.406;9.690;2023-02-15T01:38:40;-0.20;99.90
64634;DHT22;51043;52.406;9.690;2023-02-15T01:41:08;-0.30;99.90
64634;DHT22;51043;52.406;9.690;2023-02-15T01:43:50;-0.30;99.90
64634;DHT22;51043;52.406;9.690;2023-02-15T01:46:20;-0.40;99.90
64634;DHT22;51043;52.406;9.690;2023-02-15T01:48:52;-0.40;99.90
64634;DHT22;51043;52.406;9.690;2023-02-15T01:51:23;-0.40;99.90
64634;DHT22;51043;52.406;9.690;2023-02-15T01:53:55;-0.50;99.90
64634;DHT22;51043;52.406;9.690;2023-02-15T01:56:27;-0.50;99.90
64634;DHT22;51043;52.406;9.690;2023-02-15T01:58:58;-0.50;99.90
64634;DHT22;51043;52.406;9.690;2023-02-15T02:01:27;-0.60;99.90
64634;DHT22;51043;52.406;9.690;2023-02-15T02:06:29;-0.60;99.90
64634;DHT22;51043;52.406;9.690;2023-02-15T02:08:57;-0.60;99.90
64634;DHT22;51043;52.406;9.690;2023-02-15T02:11:25;-0.60;99.90
64634;DHT22;51043;52.406;9.690;2023-02-15T02:13:53;-0.60;99.90
64634;DHT22;51043;52.406;9.690;2023-02-15T02:16:28;-0.70;99.90
64634;DHT22;51043;52.406;9.690;2023-02-15T02:19:32;-0.70;99.90
64634;DHT22;51043;52.406;9.690;2023-02-15T02:25:11;-0.80;99.90
64634;DHT22;51043;52.406;9.690;2023-02-15T02:27:54;-0.90;99.90
64634;DHT22;51043;52.406;9.690;2023-02-15T02:30:55;-0.90;99.90
64634;DHT22;51043;52.406;9.690;2023-02-15T02:34:10;-0.90;99.90
64634;DHT22;51043;52.406;9.690;2023-02-15T02:42:43;-1.00;99.90
64634;DHT22;51043;52.406;9.690;2023-02-15T02:45:49;-1.00;99.90
64634;DHT22;51043;52.406;9.690;2023-02-15T02:48:19;-1.00;99.90
64634;DHT22;51043;52.406;9.690;2023-02-15T02:50:48;-0.90;99.90
64634;DHT22;51043;52.406;9.690;2023-02-15T02:53:15;-1.00;99.90
64634;DHT22;51043;52.406;9.690;2023-02-15T02:55:56;-1.00;99.90
64634;DHT22;51043;52.406;9.690;2023-02-15T02:58:26;-1.00;99.90
64634;DHT22;51043;52.406;9.690;2023-02-15T03:00:57;-0.80;99.90
64634;DHT22;51043;52.406;9.690;2023-02-15T03:03:34;-0.80;99.90
64634;DHT22;51043;52.406;9.690;2023-02-15T03:06:27;-0.80;99.90
64634;DHT22;51043;52.406;9.690;2023-02-15T03:09:08;-0.80;99.90
64634;DHT22;51043;52.406;9.690;2023-02-15T03:11:43;-0.90;99.90
64634;DHT22;51043;52.406;9.690;2023-02-15T03:14:12;-0.90;99.90
64634;DHT22;51043;52.406;9.690;2023-02-15T03:16:41;-0.90;99.90
64634;DHT22;51043;52.406;9.690;2023-02-15T03:19:20;-1.00;99.90
64634;DHT22;51043;52.406;9.690;2023-02-15T03:21:51;-1.10;99.90
64634;DHT22;51043;52.406;9.690;2023-02-15T03:24:28;-1.00;99.90
64634;DHT22;51043;52.406;9.690;2023-02-15T03:26:57;-1.00;99.90
64634;DHT22;51043;52.406;9.690;2023-02-15T03:29:27;-1.00;99.90
64634;DHT22;51043;52.406;9.690;2023-02-15T03:32:00;-1.00;99.90
64634;DHT22;51043;52.406;9.690;2023-02-15T03:34:28;-1.00;99.90
64634;DHT22;51043;52.406;9.690;2023-02-15T03:37:16;-1.00;99.90
64634;DHT22;51043;52.406;9.690;2023-02-15T03:45:52;-1.00;99.90
64634;DHT22;51043;52.406;9.690;2023-02-15T03:48:28;-1.00;99.90
64634;DHT22;51043;52.406;9.690;2023-02-15T03:51:00;-1.00;99.90
64634;DHT22;51043;52.406;9.690;2023-02-15T03:53:48;-1.00;99.90
64634;DHT22;51043;52.406;9.690;2023-02-15T03:56:16;-0.90;99.90
64634;DHT22;51043;52.406;9.690;2023-02-15T03:58:43;-1.00;99.90
64634;DHT22;51043;52.406;9.690;2023-02-15T04:01:39;-1.00;99.90
64634;DHT22;51043;52.406;9.690;2023-02-15T04:04:34;-1.00;99.90
64634;DHT22;51043;52.406;9.690;2023-02-15T04:07:03;-1.00;99.90
64634;DHT22;51043;52.406;9.690;2023-02-15T04:09:30;-1.00;99.90
64634;DHT22;51043;52.406;9.690;2023-02-15T04:12:15;-0.90;99.90
64634;DHT22;51043;52.406;9.690;2023-02-15T04:14:42;-1.00;99.90
64634;DHT22;51043;52.406;9.690;2023-02-15T04:17:28;-1.00;99.90
64634;DHT22;51043;52.406;9.690;2023-02-15T04:19:55;-1.10;99.90
64634;DHT22;51043;52.406;9.690;2023-02-15T04:22:40;-1.10;99.90
64634;DHT22;51043;52.406;9.690;2023-02-15T04:25:26;-1.20;99.90
64634;DHT22;51043;52.406;9.690;2023-02-15T04:27:54;-1.20;99.90
64634;DHT22;51043;52.406;9.690;2023-02-15T04:30:23;-1.30;99.90
64634;DHT22;51043;52.406;9.690;2023-02-15T04:32:51;-1.30;99.90
64634;DHT22;51043;52.406;9.690;2023-02-15T04:35:18;-1.20;99.90
64634;DHT22;51043;52.406;9.690;2023-02-15T04:37:45;-1.20;99.90
64634;DHT22;51043;52.406;9.690;2023-02-15T04:40:16;-1.10;99.90
64634;DHT22;51043;52.406;9.690;2023-02-15T04:42:47;-1.20;99.90
64634;DHT22;51043;52.406;9.690;2023-02-15T04:45:14;-1.20;99.90
64634;DHT22;51043;52.406;9.690;2023-02-15T04:47:41;-1.30;99.90
64634;DHT22;51043;52.406;9.690;2023-02-15T04:50:08;-1.30;99.90
64634;DHT22;51043;52.406;9.690;2023-02-15T04:52:35;-1.40;99.90
64634;DHT22;51043;52.406;9.690;2023-02-15T04:55:03;-1.40;99.90
64634;DHT22;51043;52.406;9.690;2023-02-15T04:57:29;-1.40;99.90
64634;DHT22;51043;52.406;9.690;2023-02-15T04:59:56;-1.40;99.90
64634;DHT22;51043;52.406;9.690;2023-02-15T05:02:25;-1.50;99.90
64634;DHT22;51043;52.406;9.690;2023-02-15T05:04:52;-1.50;99.90
64634;DHT22;51043;52.406;9.690;2023-02-15T05:07:19;-1.50;99.90
64634;DHT22;51043;52.406;9.690;2023-02-15T05:09:47;-1.50;99.90
64634;DHT22;51043;52.406;9.690;2023-02-15T05:12:14;-1.50;99.90
64634;DHT22;51043;52.406;9.690;2023-02-15T05:14:41;-1.50;99.90
64634;DHT22;51043;52.406;9.690;2023-02-15T05:17:07;-1.50;99.90
64634;DHT22;51043;52.406;9.690;2023-02-15T05:19:34;-1.50;99.90
64634;DHT22;51043;52.406;9.690;2023-02-15T05:22:01;-1.60;99.90
64634;DHT22;51043;52.406;9.690;2023-02-15T05:24:28;-1.60;99.90
64634;DHT22;51043;52.406;9.690;2023-02-15T05:27:13;-1.60;99.90
64634;DHT22;51043;52.406;9.690;2023-02-15T05:29:58;-1.50;99.90
64634;DHT22;51043;52.406;9.690;2023-02-15T05:32:25;-1.50;99.90
64634;DHT22;51043;52.406;9.690;2023-02-15T05:34:52;-1.50;99.90
64634;DHT22;51043;52.406;9.690;2023-02-15T05:37:19;-1.60;99.90
64634;DHT22;51043;52.406;9.690;2023-02-15T05:39:46;-1.60;99.90
64634;DHT22;51043;52.406;9.690;2023-02-15T05:42:13;-1.60;99.90
64634;DHT22;51043;52.406;9.690;2023-02-15T05:44:39;-1.60;99.90
64634;DHT22;51043;52.406;9.690;2023-02-15T05:47:06;-1.60;99.90
64634;DHT22;51043;52.406;9.690;2023-02-15T05:49:33;-1.60;99.90
64634;DHT22;51043;52.406;9.690;2023-02-15T05:52:00;-1.60;99.90
64634;DHT22;51043;52.406;9.690;2023-02-15T05:54:28;-1.60;99.90
64634;DHT22;51043;52.406;9.690;2023-02-15T05:56:55;-1.70;99.90
64634;DHT22;51043;52.406;9.690;2023-02-15T05:59:21;-1.70;99.90
64634;DHT22;51043;52.406;9.690;2023-02-15T06:01:48;-1.70;99.90
64634;DHT22;51043;52.406;9.690;2023-02-15T06:04:17;-1.70;99.90
64634;DHT22;51043;52.406;9.690;2023-02-15T06:06:45;-1.70;99.90
64634;DHT22;51043;52.406;9.690;2023-02-15T06:09:12;-1.60;99.90
64634;DHT22;51043;52.406;9.690;2023-02-15T06:11:39;-1.60;99.90
64634;DHT22;51043;52.406;9.690;2023-02-15T06:14:06;-1.60;99.90
64634;DHT22;51043;52.406;9.690;2023-02-15T06:16:32;-1.50;99.90
64634;DHT22;51043;52.406;9.690;2023-02-15T06:18:59;-1.30;99.90
64634;DHT22;51043;52.406;9.690;2023-02-15T06:21:28;-1.20;99.90
64634;DHT22;51043;52.406;9.690;2023-02-15T06:23:55;-1.30;99.90
64634;DHT22;51043;52.406;9.690;2023-02-15T06:26:22;-1.30;99.90
64634;DHT22;51043;52.406;9.690;2023-02-15T06:28:49;-1.40;99.90
64634;DHT22;51043;52.406;9.690;2023-02-15T06:31:16;-1.40;99.90
64634;DHT22;51043;52.406;9.690;2023-02-15T06:33:43;-1.50;99.90
64634;DHT22;51043;52.406;9.690;2023-02-15T06:36:09;-1.50;99.90
64634;DHT22;51043;52.406;9.690;2023-02-15T06:38:36;-1.40;99.90
64634;DHT22;51043;52.406;9.690;2023-02-15T06:41:03;-1.30;99.90
64634;DHT22;51043;52.406;9.690;2023-02-15T06:43:30;-1.10;99.90
64634;DHT22;51043;52.406;9.690;2023-02-15T06:45:57;-1.00;99.90
64634;DHT22;51043;52.406;9.690;2023-02-15T06:48:24;-1.00;99.90
64634;DHT22;51043;52.406;9.690;2023-02-15T06:50:51;-1.10;99.90
64634;DHT22;51043;52.406;9.690;2023-02-15T06:53:18;-1.10;99.90
64634;DHT22;51043;52.406;9.690;2023-02-15T06:55:46;-1.10;99.90
64634;DHT22;51043;52.406;9.690;2023-02-15T06:58:13;-1.10;99.90
64634;DHT22;51043;52.406;9.690;2023-02-15T07:00:39;-1.10;99.90
64634;DHT22;51043;52.406;9.690;2023-02-15T07:03:06;-1.10;99.90
64634;DHT22;51043;52.406;9.690;2023-02-15T07:05:34;-0.90;99.90
64634;DHT22;51043;52.406;9.690;2023-02-15T07:08:01;-1.00;99.90
64634;DHT22;51043;52.406;9.690;2023-02-15T07:10:28;-0.90;99.90
64634;DHT22;51043;52.406;9.690;2023-02-15T07:12:55;-0.90;99.90
64634;DHT22;51043;52.406;9.690;2023-02-15T07:15:22;-0.90;99.90
64634;DHT22;51043;52.406;9.690;2023-02-15T07:17:50;-0.80;99.90
64634;DHT22;51043;52.406;9.690;2023-02-15T07:20:19;-0.80;99.90
64634;DHT22;51043;52.406;9.690;2023-02-15T07:22:46;-0.70;99.90
64634;DHT22;51043;52.406;9.690;2023-02-15T07:25:13;-0.70;99.90
64634;DHT22;51043;52.406;9.690;2023-02-15T07:27:40;-0.60;99.90
64634;DHT22;51043;52.406;9.690;2023-02-15T07:30:13;-0.60;99.90
64634;DHT22;51043;52.406;9.690;2023-02-15T07:32:40;-0.40;99.90
64634;DHT22;51043;52.406;9.690;2023-02-15T07:35:30;-0.30;99.90
64634;DHT22;51043;52.406;9.690;2023-02-15T07:37:57;-0.20;99.90
64634;DHT22;51043;52.406;9.690;2023-02-15T07:40:23;-0.10;99.90
64634;DHT22;51043;52.406;9.690;2023-02-15T07:42:51;-0.10;99.90
64634;DHT22;51043;52.406;9.690;2023-02-15T07:45:21;0.00;99.90
64634;DHT22;51043;52.406;9.690;2023-02-15T07:47:48;0.10;99.90
64634;DHT22;51043;52.406;9.690;2023-02-15T07:50:14;0.30;99.90
64634;DHT22;51043;52.406;9.690;2023-02-15T07:52:41;1.20;99.90
64634;DHT22;51043;52.406;9.690;2023-02-15T07:55:08;2.80;99.90
64634;DHT22;51043;52.406;9.690;2023-02-15T07:57:35;4.40;99.90
64634;DHT22;51043;52.406;9.690;2023-02-15T08:00:03;5.70;99.90
64634;DHT22;51043;52.406;9.690;2023-02-15T08:02:38;6.80;99.90
64634;DHT22;51043;52.406;9.690;2023-02-15T08:05:05;7.80;99.90
64634;DHT22;51043;52.406;9.690;2023-02-15T08:07:32;8.40;99.90
64634;DHT22;51043;52.406;9.690;2023-02-15T08:09:59;9.10;99.90
64634;DHT22;51043;52.406;9.690;2023-02-15T08:12:26;9.80;99.90
64634;DHT22;51043;52.406;9.690;2023-02-15T08:14:54;10.70;99.90
64634;DHT22;51043;52.406;9.690;2023-02-15T08:17:21;11.50;99.90
64634;DHT22;51043;52.406;9.690;2023-02-15T08:19:48;12.00;99.90
64634;DHT22;51043;52.406;9.690;2023-02-15T08:22:14;12.20;99.90
64634;DHT22;51043;52.406;9.690;2023-02-15T08:24:41;12.00;99.90
64634;DHT22;51043;52.406;9.690;2023-02-15T08:27:10;11.50;99.90
64634;DHT22;51043;52.406;9.690;2023-02-15T08:29:38;11.40;99.90
64634;DHT22;51043;52.406;9.690;2023-02-15T08:32:07;11.50;99.90
64634;DHT22;51043;52.406;9.690;2023-02-15T08:34:38;11.50;99.90
64634;DHT22;51043;52.406;9.690;2023-02-15T08:37:06;11.40;99.90
64634;DHT22;51043;52.406;9.690;2023-02-15T08:39:33;11.60;99.90
64634;DHT22;51043;52.406;9.690;2023-02-15T08:42:00;12.10;99.90
64634;DHT22;51043;52.406;9.690;2023-02-15T08:44:27;12.40;99.90
64634;DHT22;51043;52.406;9.690;2023-02-15T08:46:54;12.50;99.90
64634;DHT22;51043;52.406;9.690;2023-02-15T08:49:22;12.40;99.90
64634;DHT22;51043;52.406;9.690;2023-02-15T08:51:49;12.40;99.90
64634;DHT22;51043;52.406;9.690;2023-02-15T08:54:19;12.30;99.90
64634;DHT22;51043;52.406;9.690;2023-02-15T08:56:47;11.60;99.90
64634;DHT22;51043;52.406;9.690;2023-02-15T08:59:17;11.40;99.90
64634;DHT22;51043;52.406;9.690;2023-02-15T09:01:46;11.20;99.90
64634;DHT22;51043;52.406;9.690;2023-02-15T09:04:14;10.90;99.90
64634;DHT22;51043;52.406;9.690;2023-02-15T09:06:43;11.00;99.90
64634;DHT22;51043;52.406;9.690;2023-02-15T09:09:13;11.50;99.90
64634;DHT22;51043;52.406;9.690;2023-02-15T09:11:42;11.90;99.90
64634;DHT22;51043;52.406;9.690;2023-02-15T09:14:14;12.30;99.90
64634;DHT22;51043;52.406;9.690;2023-02-15T09:16:43;11.80;99.90
64634;DHT22;51043;52.406;9.690;2023-02-15T09:19:16;10.90;99.90
64634;DHT22;51043;52.406;9.690;2023-02-15T09:21:44;9.90;99.90
64634;DHT22;51043;52.406;9.690;2023-02-15T09:24:13;8.90;99.90
64634;DHT22;51043;52.406;9.690;2023-02-15T09:26:43;8.20;99.90
64634;DHT22;51043;52.406;9.690;2023-02-15T09:29:11;7.50;99.90
64634;DHT22;51043;52.406;9.690;2023-02-15T09:31:41;7.10;99.90
64634;DHT22;51043;52.406;9.690;2023-02-15T09:34:12;6.90;99.90
64634;DHT22;51043;52.406;9.690;2023-02-15T09:36:40;6.70;99.90
64634;DHT22;51043;52.406;9.690;2023-02-15T09:39:18;6.50;99.90
64634;DHT22;51043;52.406;9.690;2023-02-15T09:42:00;6.40;99.90
64634;DHT22;51043;52.406;9.690;2023-02-15T09:44:53;6.40;99.90
64634;DHT22;51043;52.406;9.690;2023-02-15T09:47:52;6.40;99.90
64634;DHT22;51043;52.406;9.690;2023-02-15T09:53:43;6.10;99.90
64634;DHT22;51043;52.406;9.690;2023-02-15T09:56:31;6.10;99.90
64634;DHT22;51043;52.406;9.690;2023-02-15T10:02:37;6.20;99.90
64634;DHT22;51043;52.406;9.690;2023-02-15T10:05:28;6.40;99.90
64634;DHT22;51043;52.406;9.690;2023-02-15T10:08:13;7.00;99.90
64634;DHT22;51043;52.406;9.690;2023-02-15T10:11:09;8.10;99.90
64634;DHT22;51043;52.406;9.690;2023-02-15T10:14:29;9.20;99.90
64634;DHT22;51043;52.406;9.690;2023-02-15T10:25:37;12.20;99.90
64634;DHT22;51043;52.406;9.690;2023-02-15T10:28:21;12.00;99.90
64634;DHT22;51043;52.406;9.690;2023-02-15T10:31:07;11.50;99.90
64634;DHT22;51043;52.406;9.690;2023-02-15T10:33:46;11.30;99.90
64634;DHT22;51043;52.406;9.690;2023-02-15T10:36:42;11.10;99.90
64634;DHT22;51043;52.406;9.690;2023-02-15T10:39:39;11.10;99.90
64634;DHT22;51043;52.406;9.690;2023-02-15T10:42:29;11.60;99.90
64634;DHT22;51043;52.406;9.690;2023-02-15T10:50:48;13.30;99.90
64634;DHT22;51043;52.406;9.690;2023-02-15T10:53:45;14.10;99.60
64634;DHT22;51043;52.406;9.690;2023-02-15T11:07:24;17.80;73.40
64634;DHT22;51043;52.406;9.690;2023-02-15T11:10:28;18.10;68.50
64634;DHT22;51043;52.406;9.690;2023-02-15T11:12:57;18.40;64.60
64634;DHT22;51043;52.406;9.690;2023-02-15T11:15:39;18.80;62.00
64634;DHT22;51043;52.406;9.690;2023-02-15T11:18:14;19.40;60.50
64634;DHT22;51043;52.406;9.690;2023-02-15T11:21:01;19.60;60.00
64634;DHT22;51043;52.406;9.690;2023-02-15T11:23:28;20.90;57.50
64634;DHT22;51043;52.406;9.690;2023-02-15T11:26:00;21.60;52.10
64634;DHT22;51043;52.406;9.690;2023-02-15T11:28:37;21.30;51.00
64634;DHT22;51043;52.406;9.690;2023-02-15T11:31:16;21.70;52.30
64634;DHT22;51043;52.406;9.690;2023-02-15T11:33:48;22.40;49.10
64634;DHT22;51043;52.406;9.690;2023-02-15T11:36:20;22.20;48.50
64634;DHT22;51043;52.406;9.690;2023-02-15T11:38:52;22.20;48.40
64634;DHT22;51043;52.406;9.690;2023-02-15T11:41:24;22.10;46.80
64634;DHT22;51043;52.406;9.690;2023-02-15T11:44:04;21.70;46.50
64634;DHT22;51043;52.406;9.690;2023-02-15T11:46:32;21.00;48.60
64634;DHT22;51043;52.406;9.690;2023-02-15T11:48:59;21.00;48.90
64634;DHT22;51043;52.406;9.690;2023-02-15T11:51:27;21.00;48.30
64634;DHT22;51043;52.406;9.690;2023-02-15T11:53:56;21.20;47.00
64634;DHT22;51043;52.406;9.690;2023-02-15T11:56:27;21.30;48.10
64634;DHT22;51043;52.406;9.690;2023-02-15T11:59:00;21.90;47.30
64634;DHT22;51043;52.406;9.690;2023-02-15T12:01:33;22.00;46.20
64634;DHT22;51043;52.406;9.690;2023-02-15T12:04:07;22.10;46.40
64634;DHT22;51043;52.406;9.690;2023-02-15T12:07:09;21.80;45.70
64634;DHT22;51043;52.406;9.690;2023-02-15T12:09:37;22.10;46.00
64634;DHT22;51043;52.406;9.690;2023-02-15T12:12:27;22.40;44.90
64634;DHT22;51043;52.406;9.690;2023-02-15T12:15:04;22.10;45.20
64634;DHT22;51043;52.406;9.690;2023-02-15T12:17:49;21.00;46.20
64634;DHT22;51043;52.406;9.690;2023-02-15T12:22:50;19.30;50.40
64634;DHT22;51043;52.406;9.690;2023-02-15T12:25:40;18.80;51.00
64634;DHT22;51043;52.406;9.690;2023-02-15T12:28:24;18.20;53.10
64634;DHT22;51043;52.406;9.690;2023-02-15T12:30:53;18.40;52.30
64634;DHT22;51043;52.406;9.690;2023-02-15T12:33:41;18.60;52.50
64634;DHT22;51043;52.406;9.690;2023-02-15T12:36:24;18.30;53.40
64634;DHT22;51043;52.406;9.690;2023-02-15T12:39:27;18.80;54.00
64634;DHT22;51043;52.406;9.690;2023-02-15T12:44:27;18.20;54.70
64634;DHT22;51043;52.406;9.690;2023-02-15T12:47:19;18.00;55.80
64634;DHT22;51043;52.406;9.690;2023-02-15T12:52:37;17.50;55.90
64634;DHT22;51043;52.406;9.690;2023-02-15T12:55:27;17.60;55.30
64634;DHT22;51043;52.406;9.690;2023-02-15T13:00:45;15.30;60.80
64634;DHT22;51043;52.406;9.690;2023-02-15T13:03:20;14.20;65.90
64634;DHT22;51043;52.406;9.690;2023-02-15T13:05:50;13.30;71.70
64634;DHT22;51043;52.406;9.690;2023-02-15T13:08:30;12.40;79.70
64634;DHT22;51043;52.406;9.690;2023-02-15T13:11:00;12.00;90.70
64634;DHT22;51043;52.406;9.690;2023-02-15T13:13:33;11.70;96.80
64634;DHT22;51043;52.406;9.690;2023-02-15T13:16:09;11.40;99.90
64634;DHT22;51043;52.406;9.690;2023-02-15T13:18:43;11.30;99.90
64634;DHT22;51043;52.406;9.690;2023-02-15T13:21:35;11.30;99.90
64634;DHT22;51043;52.406;9.690;2023-02-15T13:24:28;11.10;99.90
64634;DHT22;51043;52.406;9.690;2023-02-15T13:26:57;11.10;99.90
64634;DHT22;51043;52.406;9.690;2023-02-15T13:29:40;11.00;99.90
64634;DHT22;51043;52.406;9.690;2023-02-15T13:34:46;10.70;99.90
64634;DHT22;51043;52.406;9.690;2023-02-15T13:37:15;10.60;99.90
64634;DHT22;51043;52.406;9.690;2023-02-15T13:39:58;10.50;99.90
64634;DHT22;51043;52.406;9.690;2023-02-15T13:42:41;10.50;99.90
64634;DHT22;51043;52.406;9.690;2023-02-15T13:48:02;10.60;99.90
64634;DHT22;51043;52.406;9.690;2023-02-15T13:50:51;10.60;99.90
64634;DHT22;51043;52.406;9.690;2023-02-15T13:59:17;10.40;99.90
64634;DHT22;51043;52.406;9.690;2023-02-15T14:15:46;9.90;99.90
64634;DHT22;51043;52.406;9.690;2023-02-15T14:21:15;9.80;99.90
64634;DHT22;51043;52.406;9.690;2023-02-15T14:24:20;9.90;99.90
64634;DHT22;51043;52.406;9.690;2023-02-15T14:27:04;9.90;99.90
64634;DHT22;51043;52.406;9.690;2023-02-15T14:32:12;10.10;99.90
64634;DHT22;51043;52.406;9.690;2023-02-15T14:34:52;10.00;99.90
64634;DHT22;51043;52.406;9.690;2023-02-15T14:37:46;9.90;99.90
64634;DHT22;51043;52.406;9.690;2023-02-15T14:43:21;9.90;99.90
64634;DHT22;51043;52.406;9.690;2023-02-15T14:48:50;9.90;99.90
64634;DHT22;51043;52.406;9.690;2023-02-15T14:57:20;9.80;99.90
64634;DHT22;51043;52.406;9.690;2023-02-15T14:59:59;9.80;99.90
64634;DHT22;51043;52.406;9.690;2023-02-15T15:02:45;9.70;99.90
64634;DHT22;51043;52.406;9.690;2023-02-15T15:05:26;9.60;99.90
64634;DHT22;51043;52.406;9.690;2023-02-15T15:07:56;9.60;99.90
64634;DHT22;51043;52.406;9.690;2023-02-15T15:10:43;9.60;99.90
64634;DHT22;51043;52.406;9.690;2023-02-15T15:18:51;9.30;99.90
64634;DHT22;51043;52.406;9.690;2023-02-15T15:27:41;9.10;99.90
64634;DHT22;51043;52.406;9.690;2023-02-15T15:49:17;8.50;99.90
64634;DHT22;51043;52.406;9.690;2023-02-15T15:51:46;8.40;99.90
64634;DHT22;51043;52.406;9.690;2023-02-15T15:54:20;8.40;99.90
64634;DHT22;51043;52.406;9.690;2023-02-15T15:56:51;8.30;99.90
64634;DHT22;51043;52.406;9.690;2023-02-15T15:59:22;8.20;99.90
64634;DHT22;51043;52.406;9.690;2023-02-15T16:01:50;8.10;99.90
64634;DHT22;51043;52.406;9.690;2023-02-15T16:04:26;8.10;99.90
64634;DHT22;51043;52.406;9.690;2023-02-15T16:06:53;7.90;99.90
64634;DHT22;51043;52.406;9.690;2023-02-15T16:09:23;7.80;99.90
64634;DHT22;51043;52.406;9.690;2023-02-15T16:11:58;7.60;99.90
64634;DHT22;51043;52.406;9.690;2023-02-15T16:14:39;7.50;99.90
64634;DHT22;51043;52.406;9.690;2023-02-15T16:17:36;7.50;99.90
64634;DHT22;51043;52.406;9.690;2023-02-15T16:20:14;7.30;99.90
64634;DHT22;51043;52.406;9.690;2023-02-15T16:22:41;7.20;99.90
64634;DHT22;51043;52.406;9.690;2023-02-15T16:25:34;7.20;99.90
64634;DHT22;51043;52.406;9.690;2023-02-15T16:28:22;7.00;99.90
64634;DHT22;51043;52.406;9.690;2023-02-15T16:31:21;6.80;99.90
64634;DHT22;51043;52.406;9.690;2023-02-15T16:33:46;6.60;99.90
64634;DHT22;51043;52.406;9.690;2023-02-15T16:36:25;6.40;99.90
64634;DHT22;51043;52.406;9.690;2023-02-15T16:41:27;6.10;99.90
64634;DHT22;51043;52.406;9.690;2023-02-15T16:43:58;6.00;99.90
64634;DHT22;51043;52.406;9.690;2023-02-15T16:46:41;5.90;99.90
64634;DHT22;51043;52.406;9.690;2023-02-15T16:49:22;5.70;99.90
64634;DHT22;51043;52.406;9.690;2023-02-15T16:54:25;5.50;99.90
64634;DHT22;51043;52.406;9.690;2023-02-15T16:56:53;5.50;99.90
64634;DHT22;51043;52.406;9.690;2023-02-15T16:59:38;5.50;99.90
64634;DHT22;51043;52.406;9.690;2023-02-15T17:02:16;5.40;99.90
64634;DHT22;51043;52.406;9.690;2023-02-15T17:07:42;5.40;99.90
64634;DHT22;51043;52.406;9.690;2023-02-15T17:11:00;5.30;99.90
64634;DHT22;51043;52.406;9.690;2023-02-15T17:13:29;5.20;99.90
64634;DHT22;51043;52.406;9.690;2023-02-15T17:18:43;5.10;99.90
64634;DHT22;51043;52.406;9.690;2023-02-15T17:21:17;5.20;99.90
64634;DHT22;51043;52.406;9.690;2023-02-15T17:23:50;5.10;99.90
64634;DHT22;51043;52.406;9.690;2023-02-15T17:26:25;5.10;99.90
64634;DHT22;51043;52.406;9.690;2023-02-15T17:31:50;5.10;99.90
64634;DHT22;51043;52.406;9.690;2023-02-15T17:42:47;5.10;99.90
64634;DHT22;51043;52.406;9.690;2023-02-15T17:45:14;5.20;99.90
64634;DHT22;51043;52.406;9.690;2023-02-15T17:47:42;5.20;99.90
64634;DHT22;51043;52.406;9.690;2023-02-15T17:50:19;5.20;99.90
64634;DHT22;51043;52.406;9.690;2023-02-15T17:52:47;5.20;99.90
64634;DHT22;51043;52.406;9.690;2023-02-15T17:55:16;5.20;99.90
64634;DHT22;51043;52.406;9.690;2023-02-15T17:58:03;5.10;99.90
64634;DHT22;51043;52.406;9.690;2023-02-15T18:00:31;5.10;99.90
64634;DHT22;51043;52.406;9.690;2023-02-15T18:03:19;5.30;99.90
64634;DHT22;51043;52.406;9.690;2023-02-15T18:06:04;5.20;99.90
64634;DHT22;51043;52.406;9.690;2023-02-15T18:08:49;5.30;99.90
64634;DHT22;51043;52.406;9.690;2023-02-15T18:11:38;5.40;99.90
64634;DHT22;51043;52.406;9.690;2023-02-15T18:14:06;5.40;99.90
64634;DHT22;51043;52.406;9.690;2023-02-15T18:16:38;5.40;99.90
64634;DHT22;51043;52.406;9.690;2023-02-15T18:19:21;5.40;99.90
64634;DHT22;51043;52.406;9.690;2023-02-15T18:21:48;5.40;99.90
64634;DHT22;51043;52.406;9.690;2023-02-15T18:24:18;5.40;99.90
64634;DHT22;51043;52.406;9.690;2023-02-15T18:26:46;5.30;99.90
64634;DHT22;51043;52.406;9.690;2023-02-15T18:29:13;5.30;99.90
64634;DHT22;51043;52.406;9.690;2023-02-15T18:31:41;5.20;99.90
64634;DHT22;51043;52.406;9.690;2023-02-15T18:34:21;5.20;99.90
64634;DHT22;51043;52.406;9.690;2023-02-15T18:36:49;5.20;99.90
64634;DHT22;51043;52.406;9.690;2023-02-15T18:39:33;5.10;99.90
64634;DHT22;51043;52.406;9.690;2023-02-15T18:42:03;5.10;99.90
64634;DHT22;51043;52.406;9.690;2023-02-15T18:44:30;5.20;99.90
64634;DHT22;51043;52.406;9.690;2023-02-15T18:46:57;5.20;99.90
64634;DHT22;51043;52.406;9.690;2023-02-15T18:49:24;5.30;99.90
64634;DHT22;51043;52.406;9.690;2023-02-15T18:51:51;5.30;99.90